Flinterbirka — PHFQ — position and weather

sailwx.info

Track history (hours):
 
Tides and Currents Weather Stations Pressure Air Temp Water Temp Dewpoint Dewpoint Depression Visibility Wind Speed Wind Dir Waves Ship Positions

Flinterbirka

Last reported at 2016-Aug-25 03:33 UTC. Time now 2016-Aug-25 04:28 UTC.
Position N 54°34' E 010°54'.

Length 81 m; draft 3.9 m.

Type: Cargo ship. MMSI: 246525000.

Date/timePositionNaut miles runAvg speedWind from/ knotsBaromVisibWave heightAir tempDewpointWater temp
2016-Aug-25 03:33N 54°34' E 010°54'1010.2
2016-Aug-25 02:34N 54°36' E 010°36'1010.3
2016-Aug-25 01:33N 54°40' E 010°20'9 9.4
2016-Aug-25 00:33N 54°49' E 010°14'9 9.4
2016-Aug-24 23:33N 54°57' E 010°07'10 9.9
2016-Aug-24 22:33N 55°06' E 009°58'9 9.3
2016-Aug-24 21:33N 55°13' E 009°47'9 7.5
2016-Aug-24 20:21N 55°22' E 009°46'50 1.1
2016-Aug-22 23:33N 54°41' E 010°36'9 9.5
2016-Aug-22 22:33N 54°35' E 010°50'10 9.8
2016-Aug-22 21:33N 54°36' E 011°07'1010.1
2016-Aug-22 20:33N 54°33' E 011°23'10 9.8
2016-Aug-22 19:33N 54°29' E 011°39'10 9.6
2016-Aug-22 18:33N 54°27' E 011°55'9 9.2
2016-Aug-22 17:33N 54°28' E 012°10'1010.0
2016-Aug-22 16:33N 54°38' E 012°16'10 9.7
2016-Aug-22 15:33N 54°43' E 012°30'56 9.4
2016-Aug-22 09:33N 55°04' E 014°02'9 9.4
2016-Aug-22 08:33N 55°11' E 014°12'9 9.4
2016-Aug-22 07:33N 55°18' E 014°23'10 9.5
2016-Aug-22 06:33N 55°25' E 014°34'9 9.4
2016-Aug-22 05:33N 55°29' E 014°49'9 9.0
2016-Aug-22 04:33N 55°33' E 015°03'9 9.0
2016-Aug-22 03:33N 55°37' E 015°17'9 8.7
2016-Aug-22 02:32N 55°39' E 015°33'  
2016-Aug-17 19:31N 55°06' E 019°11'7 7.2
2016-Aug-17 18:32N 54°59' E 019°15'7 7.6
2016-Aug-17 17:33N 54°52' E 019°11'7 7.2
2016-Aug-17 16:33N 54°46' E 019°04'6 6.1
2016-Aug-17 15:34N 54°41' E 018°59'6 6.2
2016-Aug-17 14:34N 54°35' E 018°54'5 5.1
2016-Aug-17 13:33N 54°32' E 018°48'5 5.2
2016-Aug-17 12:34N 54°32' E 018°39'2 2.0
2016-Aug-17 11:32N 54°32' E 018°35'0 0.0
2016-Aug-17 10:32N 54°32' E 018°35'0 0.0
2016-Aug-17 09:31N 54°32' E 018°35'0 0.0
2016-Aug-17 08:31N 54°32' E 018°35'0 0.0
2016-Aug-17 07:33N 54°32' E 018°35'0 0.0
2016-Aug-17 06:33N 54°32' E 018°35'0 0.0
2016-Aug-17 05:33N 54°32' E 018°35'0 0.0
2016-Aug-17 04:29N 54°32' E 018°35'0 0.0
2016-Aug-17 03:32N 54°32' E 018°35'0 0.0
2016-Aug-17 02:31N 54°32' E 018°35'0 0.0
2016-Aug-17 01:31N 54°32' E 018°35'0 0.0
2016-Aug-17 00:33N 54°32' E 018°35'0 0.0
2016-Aug-16 23:33N 54°32' E 018°35'0 0.0
2016-Aug-16 22:32N 54°32' E 018°35'0 0.0
2016-Aug-16 21:32N 54°32' E 018°35'0 0.0
2016-Aug-16 20:32N 54°32' E 018°35'0 0.0
2016-Aug-16 19:31N 54°32' E 018°35'0 0.0
2016-Aug-16 18:31N 54°32' E 018°35'0 0.0
2016-Aug-16 17:33N 54°32' E 018°35'0 0.0
2016-Aug-16 16:33N 54°32' E 018°35'0 0.0
2016-Aug-16 15:32N 54°32' E 018°35'0 0.0
2016-Aug-16 14:32N 54°32' E 018°35'0 0.0
2016-Aug-16 13:32N 54°32' E 018°35'0 0.0
2016-Aug-16 12:31N 54°32' E 018°35'0 0.0
2016-Aug-16 11:31N 54°32' E 018°35'0 0.0
2016-Aug-16 10:33N 54°32' E 018°35'0 0.0
2016-Aug-16 09:33N 54°32' E 018°35'0 0.0
2016-Aug-16 08:32N 54°32' E 018°35'0 0.0
2016-Aug-16 07:32N 54°32' E 018°35'0 0.0
2016-Aug-16 04:31N 54°32' E 018°35'0 0.0
2016-Aug-16 03:33N 54°32' E 018°35'0 0.0
2016-Aug-16 02:33N 54°32' E 018°35'0 0.0
2016-Aug-16 01:32N 54°32' E 018°35'0 0.0
2016-Aug-16 00:32N 54°32' E 018°35'0 0.0
2016-Aug-15 23:31N 54°32' E 018°35'0 0.0
2016-Aug-15 22:31N 54°32' E 018°35'0 0.0
2016-Aug-15 21:31N 54°32' E 018°35'0 0.0
2016-Aug-15 20:33N 54°32' E 018°35'0 0.0
2016-Aug-15 19:33N 54°32' E 018°35'0 0.0
2016-Aug-15 18:32N 54°32' E 018°35'0 0.0
2016-Aug-15 17:32N 54°32' E 018°35'0 0.0
2016-Aug-15 16:31N 54°32' E 018°35'0 0.0
2016-Aug-15 15:31N 54°32' E 018°35'0 0.0
2016-Aug-15 14:34N 54°32' E 018°35'0 0.0
2016-Aug-15 13:33N 54°32' E 018°35'0 0.0
2016-Aug-15 12:33N 54°32' E 018°35'0 0.0
2016-Aug-15 11:32N 54°32' E 018°35'0 0.0
2016-Aug-15 10:32N 54°32' E 018°35'0 0.0
2016-Aug-15 09:31N 54°32' E 018°35'0 0.0
2016-Aug-15 08:31N 54°32' E 018°35'0 0.0
2016-Aug-15 07:34N 54°32' E 018°35'0 0.0
2016-Aug-15 06:33N 54°32' E 018°35'0 0.0
2016-Aug-15 04:32N 54°32' E 018°35'  
Track history (hours):
 
Tides and Currents Weather Stations Pressure Air Temp Water Temp Dewpoint Dewpoint Depression Visibility Wind Speed Wind Dir Waves Ship Positions

Flinterbirka

Last reported at 2016-Aug-25 03:33 UTC. Time now 2016-Aug-25 04:28 UTC.
Position N 54°34' E 010°54'.

Length 81 m; draft 3.9 m.

Type: Cargo ship. MMSI: 246525000.

Date/timePositionNaut miles runAvg speedWind from/ knotsBaromVisibWave heightAir tempDewpointWater temp
2016-Aug-25 03:33N 54°34' E 010°54'1010.2
2016-Aug-25 02:34N 54°36' E 010°36'1010.3
2016-Aug-25 01:33N 54°40' E 010°20'9 9.4
2016-Aug-25 00:33N 54°49' E 010°14'9 9.4
2016-Aug-24 23:33N 54°57' E 010°07'10 9.9
2016-Aug-24 22:33N 55°06' E 009°58'9 9.3
2016-Aug-24 21:33N 55°13' E 009°47'9 7.5
2016-Aug-24 20:21N 55°22' E 009°46'50 1.1
2016-Aug-22 23:33N 54°41' E 010°36'9 9.5
2016-Aug-22 22:33N 54°35' E 010°50'10 9.8
2016-Aug-22 21:33N 54°36' E 011°07'1010.1
2016-Aug-22 20:33N 54°33' E 011°23'10 9.8
2016-Aug-22 19:33N 54°29' E 011°39'10 9.6
2016-Aug-22 18:33N 54°27' E 011°55'9 9.2
2016-Aug-22 17:33N 54°28' E 012°10'1010.0
2016-Aug-22 16:33N 54°38' E 012°16'10 9.7
2016-Aug-22 15:33N 54°43' E 012°30'56 9.4
2016-Aug-22 09:33N 55°04' E 014°02'9 9.4
2016-Aug-22 08:33N 55°11' E 014°12'9 9.4
2016-Aug-22 07:33N 55°18' E 014°23'10 9.5
2016-Aug-22 06:33N 55°25' E 014°34'9 9.4
2016-Aug-22 05:33N 55°29' E 014°49'9 9.0
2016-Aug-22 04:33N 55°33' E 015°03'9 9.0
2016-Aug-22 03:33N 55°37' E 015°17'9 8.7
2016-Aug-22 02:32N 55°39' E 015°33'  
2016-Aug-17 19:31N 55°06' E 019°11'7 7.2
2016-Aug-17 18:32N 54°59' E 019°15'7 7.6
2016-Aug-17 17:33N 54°52' E 019°11'7 7.2
2016-Aug-17 16:33N 54°46' E 019°04'6 6.1
2016-Aug-17 15:34N 54°41' E 018°59'6 6.2
2016-Aug-17 14:34N 54°35' E 018°54'5 5.1
2016-Aug-17 13:33N 54°32' E 018°48'5 5.2
2016-Aug-17 12:34N 54°32' E 018°39'2 2.0
2016-Aug-17 11:32N 54°32' E 018°35'0 0.0
2016-Aug-17 10:32N 54°32' E 018°35'0 0.0
2016-Aug-17 09:31N 54°32' E 018°35'0 0.0
2016-Aug-17 08:31N 54°32' E 018°35'0 0.0
2016-Aug-17 07:33N 54°32' E 018°35'0 0.0
2016-Aug-17 06:33N 54°32' E 018°35'0 0.0
2016-Aug-17 05:33N 54°32' E 018°35'0 0.0
2016-Aug-17 04:29N 54°32' E 018°35'0 0.0
2016-Aug-17 03:32N 54°32' E 018°35'0 0.0
2016-Aug-17 02:31N 54°32' E 018°35'0 0.0
2016-Aug-17 01:31N 54°32' E 018°35'0 0.0
2016-Aug-17 00:33N 54°32' E 018°35'0 0.0
2016-Aug-16 23:33N 54°32' E 018°35'0 0.0
2016-Aug-16 22:32N 54°32' E 018°35'0 0.0
2016-Aug-16 21:32N 54°32' E 018°35'0 0.0
2016-Aug-16 20:32N 54°32' E 018°35'0 0.0
2016-Aug-16 19:31N 54°32' E 018°35'0 0.0
2016-Aug-16 18:31N 54°32' E 018°35'0 0.0
2016-Aug-16 17:33N 54°32' E 018°35'0 0.0
2016-Aug-16 16:33N 54°32' E 018°35'0 0.0
2016-Aug-16 15:32N 54°32' E 018°35'0 0.0
2016-Aug-16 14:32N 54°32' E 018°35'0 0.0
2016-Aug-16 13:32N 54°32' E 018°35'0 0.0
2016-Aug-16 12:31N 54°32' E 018°35'0 0.0
2016-Aug-16 11:31N 54°32' E 018°35'0 0.0
2016-Aug-16 10:33N 54°32' E 018°35'0 0.0
2016-Aug-16 09:33N 54°32' E 018°35'0 0.0
2016-Aug-16 08:32N 54°32' E 018°35'0 0.0
2016-Aug-16 07:32N 54°32' E 018°35'0 0.0
2016-Aug-16 04:31N 54°32' E 018°35'0 0.0
2016-Aug-16 03:33N 54°32' E 018°35'0 0.0
2016-Aug-16 02:33N 54°32' E 018°35'0 0.0
2016-Aug-16 01:32N 54°32' E 018°35'0 0.0
2016-Aug-16 00:32N 54°32' E 018°35'0 0.0
2016-Aug-15 23:31N 54°32' E 018°35'0 0.0
2016-Aug-15 22:31N 54°32' E 018°35'0 0.0
2016-Aug-15 21:31N 54°32' E 018°35'0 0.0
2016-Aug-15 20:33N 54°32' E 018°35'0 0.0
2016-Aug-15 19:33N 54°32' E 018°35'0 0.0
2016-Aug-15 18:32N 54°32' E 018°35'0 0.0
2016-Aug-15 17:32N 54°32' E 018°35'0 0.0
2016-Aug-15 16:31N 54°32' E 018°35'0 0.0
2016-Aug-15 15:31N 54°32' E 018°35'0 0.0
2016-Aug-15 14:34N 54°32' E 018°35'0 0.0
2016-Aug-15 13:33N 54°32' E 018°35'0 0.0
2016-Aug-15 12:33N 54°32' E 018°35'0 0.0
2016-Aug-15 11:32N 54°32' E 018°35'0 0.0
2016-Aug-15 10:32N 54°32' E 018°35'0 0.0
2016-Aug-15 09:31N 54°32' E 018°35'0 0.0
2016-Aug-15 08:31N 54°32' E 018°35'0 0.0
2016-Aug-15 07:34N 54°32' E 018°35'0 0.0
2016-Aug-15 06:33N 54°32' E 018°35'0 0.0
2016-Aug-15 04:32N 54°32' E 018°35'  

Dump ship's entire track history